Terminal Aerodrome Forecast
Issued by NWS

Home | Current Version | Previous Version | Text Only | Print | Product List | Glossary On
Versions: 1 2 3 4 5 6 7 8 9 10 11 12 13 14 15 16 17
000
FTUS43 KMQT 011728
TAFIWD
TAF
KIWD 011728Z 0118/0218 06006KT P6SM BKN035
     FM012000 02008KT P6SM -SHSN BKN025
     FM020200 35005KT 5SM -SHSN OVC025
      AMD LTD TO CLD VIS AND WIND=

USA.gov is the U.S. government's official web portal to all federal, state and local government web resources and services.